METAR Data
IDs: Format: Raw Decoded Include TAF

Data at: 1908 UTC 26 Sep 2021

LICC 261850Z 05004KT CAVOK 25/23 Q1020